sensor_id;sensor_type;location;lat;lon;timestamp;P1;durP1;ratioP1;P2;durP2;ratioP2
14096;SDS011;7125;48.106;11.544;2022-11-25T00:00:22;5.93;;;4.57;;
14096;SDS011;7125;48.106;11.544;2022-11-25T00:02:49;4.83;;;4.30;;
14096;SDS011;7125;48.106;11.544;2022-11-25T00:05:16;4.60;;;4.20;;
14096;SDS011;7125;48.106;11.544;2022-11-25T00:07:43;4.50;;;4.10;;
14096;SDS011;7125;48.106;11.544;2022-11-25T00:10:11;4.30;;;3.90;;
14096;SDS011;7125;48.106;11.544;2022-11-25T00:12:39;4.30;;;3.90;;
14096;SDS011;7125;48.106;11.544;2022-11-25T00:15:06;5.70;;;4.13;;
14096;SDS011;7125;48.106;11.544;2022-11-25T00:17:33;8.43;;;4.47;;
14096;SDS011;7125;48.106;11.544;2022-11-25T00:20:00;4.83;;;3.97;;
14096;SDS011;7125;48.106;11.544;2022-11-25T00:22:30;5.57;;;4.33;;
14096;SDS011;7125;48.106;11.544;2022-11-25T00:24:56;4.57;;;3.50;;
14096;SDS011;7125;48.106;11.544;2022-11-25T00:27:25;5.23;;;3.73;;
14096;SDS011;7125;48.106;11.544;2022-11-25T00:29:52;8.77;;;4.13;;
14096;SDS011;7125;48.106;11.544;2022-11-25T00:32:19;4.57;;;3.30;;
14096;SDS011;7125;48.106;11.544;2022-11-25T00:34:46;3.77;;;3.10;;
14096;SDS011;7125;48.106;11.544;2022-11-25T00:37:14;5.50;;;4.07;;
14096;SDS011;7125;48.106;11.544;2022-11-25T00:39:41;4.23;;;3.83;;
14096;SDS011;7125;48.106;11.544;2022-11-25T00:42:08;5.03;;;4.63;;
14096;SDS011;7125;48.106;11.544;2022-11-25T00:44:54;8.27;;;4.13;;
14096;SDS011;7125;48.106;11.544;2022-11-25T00:47:21;6.77;;;4.40;;
14096;SDS011;7125;48.106;11.544;2022-11-25T00:49:49;6.23;;;4.17;;
14096;SDS011;7125;48.106;11.544;2022-11-25T00:52:19;8.27;;;4.70;;
14096;SDS011;7125;48.106;11.544;2022-11-25T00:54:49;4.87;;;4.17;;
14096;SDS011;7125;48.106;11.544;2022-11-25T00:57:17;4.33;;;3.83;;
14096;SDS011;7125;48.106;11.544;2022-11-25T00:59:46;5.00;;;3.63;;
14096;SDS011;7125;48.106;11.544;2022-11-25T01:02:15;5.70;;;4.07;;
14096;SDS011;7125;48.106;11.544;2022-11-25T01:04:43;5.67;;;4.00;;
14096;SDS011;7125;48.106;11.544;2022-11-25T01:07:13;4.87;;;4.00;;
14096;SDS011;7125;48.106;11.544;2022-11-25T01:09:40;5.30;;;4.40;;
14096;SDS011;7125;48.106;11.544;2022-11-25T01:12:07;4.17;;;3.73;;
14096;SDS011;7125;48.106;11.544;2022-11-25T01:14:34;4.10;;;3.77;;
14096;SDS011;7125;48.106;11.544;2022-11-25T01:17:01;4.40;;;4.00;;
14096;SDS011;7125;48.106;11.544;2022-11-25T01:19:32;4.87;;;3.63;;
14096;SDS011;7125;48.106;11.544;2022-11-25T01:22:02;4.43;;;3.70;;
14096;SDS011;7125;48.106;11.544;2022-11-25T01:24:29;6.27;;;4.00;;
14096;SDS011;7125;48.106;11.544;2022-11-25T01:26:56;4.13;;;3.30;;
14096;SDS011;7125;48.106;11.544;2022-11-25T01:29:23;3.67;;;3.37;;
14096;SDS011;7125;48.106;11.544;2022-11-25T01:31:53;5.00;;;4.50;;
14096;SDS011;7125;48.106;11.544;2022-11-25T01:34:22;3.70;;;3.40;;
14096;SDS011;7125;48.106;11.544;2022-11-25T01:36:51;5.40;;;3.50;;
14096;SDS011;7125;48.106;11.544;2022-11-25T01:39:19;4.00;;;3.60;;
14096;SDS011;7125;48.106;11.544;2022-11-25T01:41:47;7.13;;;3.37;;
14096;SDS011;7125;48.106;11.544;2022-11-25T01:44:15;5.13;;;4.40;;
14096;SDS011;7125;48.106;11.544;2022-11-25T01:46:46;4.27;;;3.83;;
14096;SDS011;7125;48.106;11.544;2022-11-25T01:49:22;4.37;;;3.83;;
14096;SDS011;7125;48.106;11.544;2022-11-25T01:51:54;3.90;;;3.50;;
14096;SDS011;7125;48.106;11.544;2022-11-25T01:54:24;3.77;;;3.47;;
14096;SDS011;7125;48.106;11.544;2022-11-25T01:56:56;6.17;;;4.00;;
14096;SDS011;7125;48.106;11.544;2022-11-25T01:59:27;6.47;;;3.33;;
14096;SDS011;7125;48.106;11.544;2022-11-25T02:01:56;4.90;;;4.10;;
14096;SDS011;7125;48.106;11.544;2022-11-25T02:04:26;3.43;;;2.87;;
14096;SDS011;7125;48.106;11.544;2022-11-25T02:07:00;3.67;;;3.37;;
14096;SDS011;7125;48.106;11.544;2022-11-25T02:09:32;5.47;;;4.03;;
14096;SDS011;7125;48.106;11.544;2022-11-25T02:12:02;3.73;;;3.20;;
14096;SDS011;7125;48.106;11.544;2022-11-25T02:14:30;5.50;;;4.23;;
14096;SDS011;7125;48.106;11.544;2022-11-25T02:16:58;4.63;;;3.90;;
14096;SDS011;7125;48.106;11.544;2022-11-25T02:19:28;5.70;;;4.10;;
14096;SDS011;7125;48.106;11.544;2022-11-25T02:22:08;5.03;;;3.77;;
14096;SDS011;7125;48.106;11.544;2022-11-25T02:24:42;3.83;;;3.43;;
14096;SDS011;7125;48.106;11.544;2022-11-25T02:27:13;4.73;;;3.33;;
14096;SDS011;7125;48.106;11.544;2022-11-25T02:29:41;3.30;;;3.00;;
14096;SDS011;7125;48.106;11.544;2022-11-25T02:32:09;4.37;;;3.40;;
14096;SDS011;7125;48.106;11.544;2022-11-25T02:34:44;4.07;;;3.30;;
14096;SDS011;7125;48.106;11.544;2022-11-25T02:37:12;4.30;;;3.90;;
14096;SDS011;7125;48.106;11.544;2022-11-25T02:39:41;4.27;;;3.60;;
14096;SDS011;7125;48.106;11.544;2022-11-25T02:42:11;3.63;;;3.33;;
14096;SDS011;7125;48.106;11.544;2022-11-25T02:44:39;5.17;;;3.80;;
14096;SDS011;7125;48.106;11.544;2022-11-25T02:47:07;4.37;;;3.73;;
14096;SDS011;7125;48.106;11.544;2022-11-25T02:49:36;4.07;;;3.40;;
14096;SDS011;7125;48.106;11.544;2022-11-25T02:52:04;3.50;;;3.20;;
14096;SDS011;7125;48.106;11.544;2022-11-25T02:54:31;4.47;;;3.93;;
14096;SDS011;7125;48.106;11.544;2022-11-25T02:56:59;6.67;;;3.53;;
14096;SDS011;7125;48.106;11.544;2022-11-25T02:59:26;3.60;;;2.50;;
14096;SDS011;7125;48.106;11.544;2022-11-25T03:01:55;3.80;;;3.30;;
14096;SDS011;7125;48.106;11.544;2022-11-25T03:04:24;3.33;;;3.03;;
14096;SDS011;7125;48.106;11.544;2022-11-25T03:06:51;3.60;;;2.77;;
14096;SDS011;7125;48.106;11.544;2022-11-25T03:09:18;5.93;;;3.30;;
14096;SDS011;7125;48.106;11.544;2022-11-25T03:11:45;3.60;;;3.10;;
14096;SDS011;7125;48.106;11.544;2022-11-25T03:14:29;3.30;;;2.40;;
14096;SDS011;7125;48.106;11.544;2022-11-25T03:16:57;3.63;;;2.50;;
14096;SDS011;7125;48.106;11.544;2022-11-25T03:19:25;2.40;;;2.20;;
14096;SDS011;7125;48.106;11.544;2022-11-25T03:21:52;5.70;;;2.90;;
14096;SDS011;7125;48.106;11.544;2022-11-25T03:24:19;3.70;;;3.03;;
14096;SDS011;7125;48.106;11.544;2022-11-25T03:26:48;3.77;;;2.57;;
14096;SDS011;7125;48.106;11.544;2022-11-25T03:29:17;4.20;;;2.53;;
14096;SDS011;7125;48.106;11.544;2022-11-25T03:31:44;2.07;;;1.80;;
14096;SDS011;7125;48.106;11.544;2022-11-25T03:34:13;2.07;;;1.80;;
14096;SDS011;7125;48.106;11.544;2022-11-25T03:36:40;3.17;;;2.17;;
14096;SDS011;7125;48.106;11.544;2022-11-25T03:39:08;4.83;;;2.67;;
14096;SDS011;7125;48.106;11.544;2022-11-25T03:41:36;3.87;;;2.10;;
14096;SDS011;7125;48.106;11.544;2022-11-25T03:44:03;2.03;;;1.77;;
14096;SDS011;7125;48.106;11.544;2022-11-25T03:46:31;2.73;;;1.97;;
14096;SDS011;7125;48.106;11.544;2022-11-25T03:49:01;2.40;;;1.90;;
14096;SDS011;7125;48.106;11.544;2022-11-25T03:51:30;2.87;;;1.50;;
14096;SDS011;7125;48.106;11.544;2022-11-25T03:53:58;3.53;;;2.10;;
14096;SDS011;7125;48.106;11.544;2022-11-25T03:56:25;2.57;;;1.60;;
14096;SDS011;7125;48.106;11.544;2022-11-25T05:47:28;1.10;;;1.00;;
14096;SDS011;7125;48.106;11.544;2022-11-25T06:24:57;2.93;;;1.27;;
14096;SDS011;7125;48.106;11.544;2022-11-25T06:27:25;1.90;;;1.47;;
14096;SDS011;7125;48.106;11.544;2022-11-25T06:29:52;1.70;;;1.37;;
14096;SDS011;7125;48.106;11.544;2022-11-25T06:32:19;1.53;;;1.20;;
14096;SDS011;7125;48.106;11.544;2022-11-25T06:34:54;1.87;;;1.47;;
14096;SDS011;7125;48.106;11.544;2022-11-25T06:37:44;1.33;;;1.13;;
14096;SDS011;7125;48.106;11.544;2022-11-25T06:40:12;1.30;;;1.00;;
14096;SDS011;7125;48.106;11.544;2022-11-25T06:42:39;1.47;;;1.37;;
14096;SDS011;7125;48.106;11.544;2022-11-25T06:47:50;2.40;;;1.60;;
14096;SDS011;7125;48.106;11.544;2022-11-25T06:52:54;1.33;;;1.23;;
14096;SDS011;7125;48.106;11.544;2022-11-25T07:49:16;2.33;;;2.17;;
14096;SDS011;7125;48.106;11.544;2022-11-25T07:59:43;3.20;;;2.17;;
14096;SDS011;7125;48.106;11.544;2022-11-25T08:02:10;2.97;;;2.07;;
14096;SDS011;7125;48.106;11.544;2022-11-25T08:04:38;3.83;;;2.13;;
14096;SDS011;7125;48.106;11.544;2022-11-25T08:07:05;2.80;;;2.07;;
14096;SDS011;7125;48.106;11.544;2022-11-25T08:09:32;3.40;;;2.13;;
14096;SDS011;7125;48.106;11.544;2022-11-25T08:11:59;1.90;;;1.70;;
14096;SDS011;7125;48.106;11.544;2022-11-25T08:14:26;3.83;;;2.90;;
14096;SDS011;7125;48.106;11.544;2022-11-25T08:16:53;2.60;;;2.10;;
14096;SDS011;7125;48.106;11.544;2022-11-25T08:19:20;2.23;;;1.77;;
14096;SDS011;7125;48.106;11.544;2022-11-25T08:21:48;1.60;;;1.50;;
14096;SDS011;7125;48.106;11.544;2022-11-25T08:24:15;4.00;;;2.10;;
14096;SDS011;7125;48.106;11.544;2022-11-25T08:26:44;3.13;;;2.10;;
14096;SDS011;7125;48.106;11.544;2022-11-25T08:29:12;5.37;;;4.17;;
14096;SDS011;7125;48.106;11.544;2022-11-25T08:31:40;4.53;;;2.83;;
14096;SDS011;7125;48.106;11.544;2022-11-25T08:34:08;3.77;;;2.77;;
14096;SDS011;7125;48.106;11.544;2022-11-25T08:36:41;4.50;;;3.37;;
14096;SDS011;7125;48.106;11.544;2022-11-25T08:39:09;4.70;;;3.27;;
14096;SDS011;7125;48.106;11.544;2022-11-25T08:41:40;4.23;;;2.23;;
14096;SDS011;7125;48.106;11.544;2022-11-25T08:44:07;2.57;;;2.33;;
14096;SDS011;7125;48.106;11.544;2022-11-25T08:46:38;3.73;;;2.30;;
14096;SDS011;7125;48.106;11.544;2022-11-25T08:49:06;4.13;;;2.27;;
14096;SDS011;7125;48.106;11.544;2022-11-25T08:51:34;3.13;;;2.60;;
14096;SDS011;7125;48.106;11.544;2022-11-25T08:54:03;3.03;;;2.00;;
14096;SDS011;7125;48.106;11.544;2022-11-25T08:56:33;3.10;;;2.47;;
14096;SDS011;7125;48.106;11.544;2022-11-25T08:59:00;2.20;;;2.00;;
14096;SDS011;7125;48.106;11.544;2022-11-25T09:01:27;5.23;;;2.03;;
14096;SDS011;7125;48.106;11.544;2022-11-25T09:03:54;3.40;;;2.80;;
14096;SDS011;7125;48.106;11.544;2022-11-25T09:06:22;2.63;;;2.07;;
14096;SDS011;7125;48.106;11.544;2022-11-25T09:08:50;2.50;;;2.23;;
14096;SDS011;7125;48.106;11.544;2022-11-25T09:11:20;2.80;;;2.13;;
14096;SDS011;7125;48.106;11.544;2022-11-25T09:13:49;3.17;;;2.97;;
14096;SDS011;7125;48.106;11.544;2022-11-25T09:16:16;3.23;;;2.67;;
14096;SDS011;7125;48.106;11.544;2022-11-25T09:18:43;2.87;;;2.00;;
14096;SDS011;7125;48.106;11.544;2022-11-25T09:21:10;3.40;;;3.10;;
14096;SDS011;7125;48.106;11.544;2022-11-25T09:23:39;3.43;;;2.77;;
14096;SDS011;7125;48.106;11.544;2022-11-25T09:26:06;4.80;;;2.50;;
14096;SDS011;7125;48.106;11.544;2022-11-25T09:28:42;5.53;;;3.70;;
14096;SDS011;7125;48.106;11.544;2022-11-25T09:31:11;4.37;;;3.83;;
14096;SDS011;7125;48.106;11.544;2022-11-25T09:33:38;6.87;;;4.00;;
14096;SDS011;7125;48.106;11.544;2022-11-25T09:36:05;4.10;;;3.40;;
14096;SDS011;7125;48.106;11.544;2022-11-25T09:38:32;4.53;;;2.87;;
14096;SDS011;7125;48.106;11.544;2022-11-25T09:41:02;3.73;;;2.70;;
14096;SDS011;7125;48.106;11.544;2022-11-25T09:43:34;4.43;;;2.80;;
14096;SDS011;7125;48.106;11.544;2022-11-25T09:46:34;3.17;;;2.87;;
14096;SDS011;7125;48.106;11.544;2022-11-25T09:49:12;5.07;;;3.00;;
14096;SDS011;7125;48.106;11.544;2022-11-25T09:51:55;5.83;;;3.47;;
14096;SDS011;7125;48.106;11.544;2022-11-25T09:54:31;4.33;;;3.30;;
14096;SDS011;7125;48.106;11.544;2022-11-25T09:57:02;4.33;;;3.10;;
14096;SDS011;7125;48.106;11.544;2022-11-25T09:59:42;4.30;;;3.13;;
14096;SDS011;7125;48.106;11.544;2022-11-25T10:02:19;4.87;;;3.30;;
14096;SDS011;7125;48.106;11.544;2022-11-25T10:04:53;3.80;;;2.00;;
14096;SDS011;7125;48.106;11.544;2022-11-25T10:07:29;3.27;;;1.90;;
14096;SDS011;7125;48.106;11.544;2022-11-25T10:10:00;1.93;;;1.50;;
14096;SDS011;7125;48.106;11.544;2022-11-25T10:12:31;2.03;;;1.40;;
14096;SDS011;7125;48.106;11.544;2022-11-25T10:15:03;2.33;;;1.90;;
14096;SDS011;7125;48.106;11.544;2022-11-25T10:17:41;2.57;;;1.57;;
14096;SDS011;7125;48.106;11.544;2022-11-25T10:20:13;3.27;;;2.43;;
14096;SDS011;7125;48.106;11.544;2022-11-25T10:22:45;2.70;;;2.27;;
14096;SDS011;7125;48.106;11.544;2022-11-25T10:25:15;3.13;;;2.27;;
14096;SDS011;7125;48.106;11.544;2022-11-25T10:27:46;2.87;;;2.67;;
14096;SDS011;7125;48.106;11.544;2022-11-25T10:30:18;3.50;;;2.57;;
14096;SDS011;7125;48.106;11.544;2022-11-25T10:32:51;4.40;;;2.40;;
14096;SDS011;7125;48.106;11.544;2022-11-25T10:35:21;3.43;;;2.40;;
14096;SDS011;7125;48.106;11.544;2022-11-25T10:37:55;6.00;;;2.60;;
14096;SDS011;7125;48.106;11.544;2022-11-25T10:40:26;2.57;;;1.90;;
14096;SDS011;7125;48.106;11.544;2022-11-25T10:42:53;8.27;;;2.30;;
14096;SDS011;7125;48.106;11.544;2022-11-25T10:45:21;6.63;;;2.40;;
14096;SDS011;7125;48.106;11.544;2022-11-25T10:48:00;3.97;;;2.13;;
14096;SDS011;7125;48.106;11.544;2022-11-25T10:50:41;6.07;;;2.17;;
14096;SDS011;7125;48.106;11.544;2022-11-25T10:53:28;3.77;;;2.13;;
14096;SDS011;7125;48.106;11.544;2022-11-25T10:55:56;4.70;;;2.20;;
14096;SDS011;7125;48.106;11.544;2022-11-25T10:58:27;3.77;;;2.43;;
14096;SDS011;7125;48.106;11.544;2022-11-25T11:01:06;7.47;;;2.43;;
14096;SDS011;7125;48.106;11.544;2022-11-25T11:03:40;4.77;;;2.00;;
14096;SDS011;7125;48.106;11.544;2022-11-25T11:08:56;1.87;;;1.20;;
14096;SDS011;7125;48.106;11.544;2022-11-25T11:11:24;2.63;;;1.50;;
14096;SDS011;7125;48.106;11.544;2022-11-25T11:13:57;6.10;;;1.70;;
14096;SDS011;7125;48.106;11.544;2022-11-25T11:16:37;3.77;;;2.50;;
14096;SDS011;7125;48.106;11.544;2022-11-25T11:19:17;2.60;;;2.20;;
14096;SDS011;7125;48.106;11.544;2022-11-25T11:21:46;3.23;;;2.03;;
14096;SDS011;7125;48.106;11.544;2022-11-25T11:24:23;4.17;;;1.90;;
14096;SDS011;7125;48.106;11.544;2022-11-25T11:27:00;2.53;;;1.20;;
14096;SDS011;7125;48.106;11.544;2022-11-25T11:29:28;2.63;;;1.60;;
14096;SDS011;7125;48.106;11.544;2022-11-25T11:31:57;2.07;;;1.30;;
14096;SDS011;7125;48.106;11.544;2022-11-25T11:37:32;2.40;;;1.00;;
14096;SDS011;7125;48.106;11.544;2022-11-25T11:45:50;1.60;;;0.90;;
14096;SDS011;7125;48.106;11.544;2022-11-25T11:48:28;5.13;;;1.33;;
14096;SDS011;7125;48.106;11.544;2022-11-25T11:51:07;5.70;;;1.93;;
14096;SDS011;7125;48.106;11.544;2022-11-25T11:53:44;2.67;;;1.60;;
14096;SDS011;7125;48.106;11.544;2022-11-25T11:56:22;1.97;;;0.80;;
14096;SDS011;7125;48.106;11.544;2022-11-25T11:59:07;4.27;;;0.90;;
14096;SDS011;7125;48.106;11.544;2022-11-25T12:01:52;1.53;;;0.60;;
14096;SDS011;7125;48.106;11.544;2022-11-25T12:04:29;4.57;;;0.50;;
14096;SDS011;7125;48.106;11.544;2022-11-25T12:07:04;1.57;;;0.90;;
14096;SDS011;7125;48.106;11.544;2022-11-25T12:09:37;1.63;;;0.60;;
14096;SDS011;7125;48.106;11.544;2022-11-25T12:12:12;1.47;;;0.77;;
14096;SDS011;7125;48.106;11.544;2022-11-25T12:14:44;3.60;;;0.80;;
14096;SDS011;7125;48.106;11.544;2022-11-25T12:17:16;3.57;;;0.97;;
14096;SDS011;7125;48.106;11.544;2022-11-25T12:19:48;1.53;;;0.77;;
14096;SDS011;7125;48.106;11.544;2022-11-25T12:22:23;3.80;;;1.20;;
14096;SDS011;7125;48.106;11.544;2022-11-25T12:24:56;3.23;;;1.23;;
14096;SDS011;7125;48.106;11.544;2022-11-25T12:27:30;2.23;;;1.10;;
14096;SDS011;7125;48.106;11.544;2022-11-25T12:30:05;0.87;;;0.63;;
14096;SDS011;7125;48.106;11.544;2022-11-25T12:32:47;1.53;;;0.70;;
14096;SDS011;7125;48.106;11.544;2022-11-25T12:35:24;2.47;;;0.90;;
14096;SDS011;7125;48.106;11.544;2022-11-25T12:38:03;2.07;;;0.87;;
14096;SDS011;7125;48.106;11.544;2022-11-25T12:40:39;2.77;;;1.20;;
14096;SDS011;7125;48.106;11.544;2022-11-25T12:43:19;2.00;;;0.97;;
14096;SDS011;7125;48.106;11.544;2022-11-25T12:45:53;1.93;;;0.70;;
14096;SDS011;7125;48.106;11.544;2022-11-25T12:48:30;2.77;;;0.83;;
14096;SDS011;7125;48.106;11.544;2022-11-25T12:50:58;3.00;;;0.87;;
14096;SDS011;7125;48.106;11.544;2022-11-25T12:53:37;1.97;;;1.10;;
14096;SDS011;7125;48.106;11.544;2022-11-25T12:56:10;2.77;;;0.73;;
14096;SDS011;7125;48.106;11.544;2022-11-25T12:58:48;1.13;;;0.90;;
14096;SDS011;7125;48.106;11.544;2022-11-25T13:01:28;3.60;;;0.77;;
14096;SDS011;7125;48.106;11.544;2022-11-25T13:07:28;2.77;;;1.30;;
14096;SDS011;7125;48.106;11.544;2022-11-25T13:10:10;1.23;;;0.83;;
14096;SDS011;7125;48.106;11.544;2022-11-25T13:12:56;2.67;;;1.13;;
14096;SDS011;7125;48.106;11.544;2022-11-25T13:15:30;1.53;;;1.20;;
14096;SDS011;7125;48.106;11.544;2022-11-25T13:18:08;1.70;;;1.00;;
14096;SDS011;7125;48.106;11.544;2022-11-25T13:20:45;4.27;;;1.13;;
14096;SDS011;7125;48.106;11.544;2022-11-25T13:23:27;2.20;;;0.80;;
14096;SDS011;7125;48.106;11.544;2022-11-25T13:32:28;3.30;;;1.03;;
14096;SDS011;7125;48.106;11.544;2022-11-25T13:41:01;5.57;;;1.83;;
14096;SDS011;7125;48.106;11.544;2022-11-25T13:43:31;1.97;;;1.03;;
14096;SDS011;7125;48.106;11.544;2022-11-25T13:45:57;6.00;;;1.30;;
14096;SDS011;7125;48.106;11.544;2022-11-25T13:48:26;3.50;;;1.50;;
14096;SDS011;7125;48.106;11.544;2022-11-25T13:53:39;1.73;;;1.17;;
14096;SDS011;7125;48.106;11.544;2022-11-25T13:56:13;3.80;;;1.70;;
14096;SDS011;7125;48.106;11.544;2022-11-25T14:05:04;1.40;;;1.10;;
14096;SDS011;7125;48.106;11.544;2022-11-25T14:07:42;5.47;;;1.80;;
14096;SDS011;7125;48.106;11.544;2022-11-25T14:10:23;6.63;;;1.20;;
14096;SDS011;7125;48.106;11.544;2022-11-25T14:13:06;2.47;;;1.03;;
14096;SDS011;7125;48.106;11.544;2022-11-25T14:15:52;2.77;;;1.23;;
14096;SDS011;7125;48.106;11.544;2022-11-25T14:18:46;3.97;;;1.40;;
14096;SDS011;7125;48.106;11.544;2022-11-25T14:21:41;7.37;;;1.50;;
14096;SDS011;7125;48.106;11.544;2022-11-25T14:24:29;1.93;;;1.10;;
14096;SDS011;7125;48.106;11.544;2022-11-25T14:27:02;4.13;;;1.40;;
14096;SDS011;7125;48.106;11.544;2022-11-25T14:29:34;2.00;;;1.37;;
14096;SDS011;7125;48.106;11.544;2022-11-25T14:32:06;9.37;;;1.80;;
14096;SDS011;7125;48.106;11.544;2022-11-25T14:34:39;5.97;;;1.93;;
14096;SDS011;7125;48.106;11.544;2022-11-25T14:37:10;3.30;;;1.53;;
14096;SDS011;7125;48.106;11.544;2022-11-25T14:39:43;5.03;;;1.53;;
14096;SDS011;7125;48.106;11.544;2022-11-25T14:42:16;8.67;;;1.70;;
14096;SDS011;7125;48.106;11.544;2022-11-25T14:44:46;3.33;;;1.37;;
14096;SDS011;7125;48.106;11.544;2022-11-25T14:47:21;2.70;;;1.60;;
14096;SDS011;7125;48.106;11.544;2022-11-25T14:49:50;4.73;;;1.30;;
14096;SDS011;7125;48.106;11.544;2022-11-25T14:52:18;11.53;;;4.70;;
14096;SDS011;7125;48.106;11.544;2022-11-25T14:54:47;3.63;;;1.40;;
14096;SDS011;7125;48.106;11.544;2022-11-25T14:57:20;9.37;;;1.60;;
14096;SDS011;7125;48.106;11.544;2022-11-25T14:59:50;5.13;;;1.80;;
14096;SDS011;7125;48.106;11.544;2022-11-25T15:02:24;4.30;;;2.30;;
14096;SDS011;7125;48.106;11.544;2022-11-25T15:05:02;7.77;;;1.77;;
14096;SDS011;7125;48.106;11.544;2022-11-25T15:07:38;7.03;;;1.93;;
14096;SDS011;7125;48.106;11.544;2022-11-25T15:13:11;5.53;;;2.87;;
14096;SDS011;7125;48.106;11.544;2022-11-25T15:15:45;6.47;;;2.00;;
14096;SDS011;7125;48.106;11.544;2022-11-25T15:18:16;6.43;;;2.20;;
14096;SDS011;7125;48.106;11.544;2022-11-25T15:20:46;8.77;;;1.90;;
14096;SDS011;7125;48.106;11.544;2022-11-25T15:23:16;5.33;;;2.30;;
14096;SDS011;7125;48.106;11.544;2022-11-25T15:25:48;11.47;;;2.57;;
14096;SDS011;7125;48.106;11.544;2022-11-25T15:28:16;5.70;;;2.10;;
14096;SDS011;7125;48.106;11.544;2022-11-25T15:30:53;5.17;;;1.70;;
14096;SDS011;7125;48.106;11.544;2022-11-25T15:33:23;4.97;;;2.10;;
14096;SDS011;7125;48.106;11.544;2022-11-25T15:35:52;5.13;;;1.93;;
14096;SDS011;7125;48.106;11.544;2022-11-25T15:38:33;5.03;;;2.23;;
14096;SDS011;7125;48.106;11.544;2022-11-25T15:41:02;9.60;;;2.80;;
14096;SDS011;7125;48.106;11.544;2022-11-25T15:43:30;10.47;;;3.37;;
14096;SDS011;7125;48.106;11.544;2022-11-25T15:46:00;12.07;;;3.03;;
14096;SDS011;7125;48.106;11.544;2022-11-25T15:48:31;9.93;;;4.17;;
14096;SDS011;7125;48.106;11.544;2022-11-25T15:51:03;7.27;;;2.70;;
14096;SDS011;7125;48.106;11.544;2022-11-25T15:53:32;7.47;;;2.87;;
14096;SDS011;7125;48.106;11.544;2022-11-25T15:56:03;6.90;;;2.67;;
14096;SDS011;7125;48.106;11.544;2022-11-25T15:58:35;4.83;;;2.97;;
14096;SDS011;7125;48.106;11.544;2022-11-25T16:01:02;5.63;;;2.40;;
14096;SDS011;7125;48.106;11.544;2022-11-25T16:03:31;7.30;;;2.33;;
14096;SDS011;7125;48.106;11.544;2022-11-25T16:06:00;11.93;;;2.70;;
14096;SDS011;7125;48.106;11.544;2022-11-25T16:08:31;4.70;;;2.33;;
14096;SDS011;7125;48.106;11.544;2022-11-25T16:11:13;5.70;;;2.50;;
14096;SDS011;7125;48.106;11.544;2022-11-25T16:13:43;8.70;;;2.17;;
14096;SDS011;7125;48.106;11.544;2022-11-25T16:16:13;3.80;;;2.53;;
14096;SDS011;7125;48.106;11.544;2022-11-25T16:19:02;5.60;;;2.23;;
14096;SDS011;7125;48.106;11.544;2022-11-25T16:21:41;5.60;;;2.10;;
14096;SDS011;7125;48.106;11.544;2022-11-25T16:24:28;2.77;;;2.00;;
14096;SDS011;7125;48.106;11.544;2022-11-25T16:27:06;6.13;;;3.00;;
14096;SDS011;7125;48.106;11.544;2022-11-25T16:29:46;4.90;;;2.07;;
14096;SDS011;7125;48.106;11.544;2022-11-25T16:32:16;5.90;;;2.43;;
14096;SDS011;7125;48.106;11.544;2022-11-25T16:34:46;4.70;;;3.03;;
14096;SDS011;7125;48.106;11.544;2022-11-25T16:37:14;6.47;;;2.87;;
14096;SDS011;7125;48.106;11.544;2022-11-25T16:39:41;4.77;;;2.77;;
14096;SDS011;7125;48.106;11.544;2022-11-25T16:42:12;6.20;;;3.00;;
14096;SDS011;7125;48.106;11.544;2022-11-25T16:44:44;4.97;;;2.97;;
14096;SDS011;7125;48.106;11.544;2022-11-25T16:47:13;7.20;;;3.27;;
14096;SDS011;7125;48.106;11.544;2022-11-25T16:49:40;6.63;;;3.23;;
14096;SDS011;7125;48.106;11.544;2022-11-25T16:52:08;11.40;;;4.50;;
14096;SDS011;7125;48.106;11.544;2022-11-25T16:54:35;9.20;;;3.50;;
14096;SDS011;7125;48.106;11.544;2022-11-25T16:57:03;8.53;;;2.60;;
14096;SDS011;7125;48.106;11.544;2022-11-25T16:59:34;7.60;;;2.97;;
14096;SDS011;7125;48.106;11.544;2022-11-25T17:02:07;4.40;;;2.90;;
14096;SDS011;7125;48.106;11.544;2022-11-25T17:04:41;8.93;;;2.80;;
14096;SDS011;7125;48.106;11.544;2022-11-25T17:07:11;5.70;;;3.17;;
14096;SDS011;7125;48.106;11.544;2022-11-25T17:09:39;9.80;;;3.10;;
14096;SDS011;7125;48.106;11.544;2022-11-25T17:12:09;8.27;;;2.90;;
14096;SDS011;7125;48.106;11.544;2022-11-25T17:14:40;6.30;;;3.60;;
14096;SDS011;7125;48.106;11.544;2022-11-25T17:17:08;4.73;;;2.87;;
14096;SDS011;7125;48.106;11.544;2022-11-25T17:19:37;5.87;;;4.00;;
14096;SDS011;7125;48.106;11.544;2022-11-25T17:22:06;5.07;;;3.43;;
14096;SDS011;7125;48.106;11.544;2022-11-25T17:24:42;7.57;;;3.37;;
14096;SDS011;7125;48.106;11.544;2022-11-25T17:27:09;7.73;;;2.87;;
14096;SDS011;7125;48.106;11.544;2022-11-25T17:29:42;7.47;;;3.80;;
14096;SDS011;7125;48.106;11.544;2022-11-25T17:32:10;6.47;;;3.77;;
14096;SDS011;7125;48.106;11.544;2022-11-25T17:34:38;6.87;;;3.57;;
14096;SDS011;7125;48.106;11.544;2022-11-25T17:37:06;6.43;;;3.40;;
14096;SDS011;7125;48.106;11.544;2022-11-25T17:39:39;6.40;;;3.70;;
14096;SDS011;7125;48.106;11.544;2022-11-25T17:42:09;11.80;;;5.13;;
14096;SDS011;7125;48.106;11.544;2022-11-25T17:44:38;11.20;;;6.07;;
14096;SDS011;7125;48.106;11.544;2022-11-25T17:47:07;6.70;;;4.53;;
14096;SDS011;7125;48.106;11.544;2022-11-25T17:49:36;8.83;;;4.90;;
14096;SDS011;7125;48.106;11.544;2022-11-25T17:52:04;6.87;;;4.90;;
14096;SDS011;7125;48.106;11.544;2022-11-25T17:54:32;6.37;;;5.40;;
14096;SDS011;7125;48.106;11.544;2022-11-25T17:57:01;9.17;;;5.53;;
14096;SDS011;7125;48.106;11.544;2022-11-25T17:59:30;7.87;;;5.73;;
14096;SDS011;7125;48.106;11.544;2022-11-25T18:01:58;8.00;;;5.40;;
14096;SDS011;7125;48.106;11.544;2022-11-25T18:04:26;11.27;;;7.27;;
14096;SDS011;7125;48.106;11.544;2022-11-25T18:06:55;9.67;;;6.73;;
14096;SDS011;7125;48.106;11.544;2022-11-25T18:09:22;12.70;;;7.73;;
14096;SDS011;7125;48.106;11.544;2022-11-25T18:11:50;9.97;;;6.37;;
14096;SDS011;7125;48.106;11.544;2022-11-25T18:14:21;8.13;;;6.73;;
14096;SDS011;7125;48.106;11.544;2022-11-25T18:16:51;10.50;;;7.17;;
14096;SDS011;7125;48.106;11.544;2022-11-25T18:19:18;11.80;;;7.17;;
14096;SDS011;7125;48.106;11.544;2022-11-25T18:21:45;10.27;;;6.50;;
14096;SDS011;7125;48.106;11.544;2022-11-25T18:24:12;12.17;;;5.57;;
14096;SDS011;7125;48.106;11.544;2022-11-25T18:26:40;10.37;;;5.33;;
14096;SDS011;7125;48.106;11.544;2022-11-25T18:29:12;12.10;;;5.43;;
14096;SDS011;7125;48.106;11.544;2022-11-25T18:31:43;10.13;;;5.43;;
14096;SDS011;7125;48.106;11.544;2022-11-25T18:34:11;9.57;;;5.47;;
14096;SDS011;7125;48.106;11.544;2022-11-25T18:36:39;8.50;;;4.87;;
14096;SDS011;7125;48.106;11.544;2022-11-25T18:39:07;13.60;;;5.87;;
14096;SDS011;7125;48.106;11.544;2022-11-25T18:41:35;15.57;;;6.23;;
14096;SDS011;7125;48.106;11.544;2022-11-25T18:44:02;11.67;;;6.60;;
14096;SDS011;7125;48.106;11.544;2022-11-25T18:46:32;13.50;;;7.67;;
14096;SDS011;7125;48.106;11.544;2022-11-25T18:49:06;15.10;;;7.07;;
14096;SDS011;7125;48.106;11.544;2022-11-25T18:51:37;11.70;;;7.00;;
14096;SDS011;7125;48.106;11.544;2022-11-25T18:54:04;11.70;;;7.57;;
14096;SDS011;7125;48.106;11.544;2022-11-25T18:56:32;11.73;;;7.67;;
14096;SDS011;7125;48.106;11.544;2022-11-25T18:59:00;14.03;;;8.20;;
14096;SDS011;7125;48.106;11.544;2022-11-25T19:01:28;9.47;;;7.00;;
14096;SDS011;7125;48.106;11.544;2022-11-25T19:03:54;10.33;;;7.13;;
14096;SDS011;7125;48.106;11.544;2022-11-25T19:06:23;12.67;;;8.13;;
14096;SDS011;7125;48.106;11.544;2022-11-25T19:08:52;10.37;;;7.70;;
14096;SDS011;7125;48.106;11.544;2022-11-25T19:11:22;11.00;;;6.53;;
14096;SDS011;7125;48.106;11.544;2022-11-25T19:13:54;8.37;;;6.33;;
14096;SDS011;7125;48.106;11.544;2022-11-25T19:16:27;13.93;;;7.30;;
14096;SDS011;7125;48.106;11.544;2022-11-25T19:18:54;11.83;;;8.70;;